Aeroporto :
LOGIN :

Iscrizione | Disclaimer

   EN    FR    IT 

 










Sommario :    VFR   VFR Marginale   IFR   IFR Intensivo   IFR Molto Intensivo
Visibilità : 
Base nubi : 
>= 8 km
>= 3000ft
5 / 8 km
1000 / 3000 ft
1500m / 5 km
500 / 1000 ft
800 / 1500m
200 / 500 ft
< 800m
< 200 ft
Simboli :   Temporali  Nebbia  Neve Forte  Precipitazioni Forti  Vento > 20 kt
SIGMETs :   Varie  Temporali  Ghiacco  Turbolenza  Onda orograficha  Ceneri Vulcaniche






- Altitudine del aeroporto : 3 ft
- Codice IATA : LWR


EHLW - Leuuwarden Air Base

ULTIMO METAR :
  • 240655Z AUTO 21010KT 170V230 6000 BR OVC027 08/07 Q1021 WHT

METARs OBSOLETI :
  • 240625Z AUTO 20011KT 170V230 6000 BR SCT029 OVC035 08/07 Q1021 WHT
  • 240555Z AUTO 21011KT 170V230 7000 BR OVC036 08/07 Q1021 WHT
  • 240525Z AUTO 21011KT 7000 BR OVC032 08/07 Q1021 WHT
  • 240514Z AUTO 21011KT 170V230 7000 BR BKN031 OVC035 08/07 Q1021 WHT
  • 240455Z AUTO 21011KT 170V230 7000 BR OVC033 08/07 Q1021 WHT
  • 240447Z AUTO 21011KT 170V230 7000 BR OVC032 08/07 Q1021 WHT
  • 240425Z AUTO 20010KT 170V230 8000 BR BKN028 OVC031 08/07 Q1021 BLU

TAF TAF EHLW
Valido dal 24 a 06 ore il 24 a 18 ore UTC


240505Z 2406/2418 21010KT 9999 SCT025 BKN035
BECMG 2406/2408 SCT008 BKN012
PROB40 2406/2410 4000 BR BKN006
BECMG 2408/2411 9999 NSW SCT020 BKN040
PROB30 2410/2414 4000 BR BKN008



MetMap, La meteo Aeronautica in un colpo d'occhio ! - Copyright ORBIFLY Dicembre 2007 - Disclaimer

ORBIFLY MET'MAP TEAM :

Programmazione e sviluppo : Alexandra Zaïnal
Concezione : Baudouin d'Aumeries
Aiuto per la programmazione : Marc-Olivier Méhu
Supporto tecnico e logistico : Manuel Goepfert
Aiuto per la traduzione : Arnaldo La Scala

Contatto : metmap@orbifly.com




FONTI E CREDITI :

   NOAA